Strona główna
METAR-TAF:

METAR-TAF

Lotnisko :

Nancy, Francja

Szerokość geograficzna: 48-41N, Długość geograficzna: 006-13E, wysokość: 225 m

Aktualna obserwacja pogody

Raport powstał 17 minut temu, godzina 11:30 UTC
Wiatr 7 kt od zachodnio-południowy zachód, zmienny między południe i zachód
Temperatura 4°C
Wilgotność 81%
Ciśnienie 1028 hPa
Widzialność 10 km lub więcej
Przerywane chmury na wysokości 1100 ft

METAR: LFSN 101130Z AUTO 24007KT 180V270 9999 BKN011 04/01 Q1028

czas: 12:47 (11:47 UTC)


TAF: brakujący

Obserwacja i prognoza pogody dla ponad 4000 lotnisk (raport METAR i TAF).

Dostępne stacje oznaczono żółtymi i czerwonymi punktami na mapie.

Najedź kursorem aby zobaczyć nazwę stacji.

Kliknij aby zobaczyć obserwacje i prognozy pogody.

Aby zmienić mapę: kliknij na zielony przycisk z czarnym krzyżykiem, aby powiększyć; na zielony przycisk z myślnikiem, aby pomniejszyć; na zielone strzałki, aby przejść do map sąsiednich.


METAR-TAF: